Tompkins, Canada
Current Conditions -  °F | °C
As of 9:46 PM on Saturday 22 Nov 2014 (Local Time) from CYYN Reporting Station
Light Snow Light Snow  
Wind Chill: -12°   Ceiling: 600
Heat Index: -4°   Visibility: 5mi
Dew Point: -5°   Wind: 22mph
Humidity: 93%   Direction: 310°NW
Pressure: 29.23"   Gusts: 31mph
Location:  50.07°N, 108.8°W
Report Text: CYYN 230346Z AUTO 31019G27KT 5SM -SN BKN006 OVC011 M04/M05 A2923 RMK PRESRR SLP927
Loading
Personal Weather Stations






























Interactive Weather Map New forecast layout! Learn more

10-Day Weather Forecast

Advertisements
Track Severe Weather on mobile